createdAt,value
2016-08-13T00:00:42.009Z,90.71
2016-08-13T00:01:42.623Z,90.61
2016-08-13T00:02:43.497Z,90.81
2016-08-13T00:03:44.126Z,90.33
2016-08-13T00:04:44.745Z,90.52
2016-08-13T00:05:45.895Z,90.61
2016-08-13T00:06:46.506Z,90.52
2016-08-13T00:07:47.113Z,90.52
2016-08-13T00:08:47.842Z,90.14
2016-08-13T00:09:48.462Z,90.52
2016-08-13T00:10:49.099Z,90.33
2016-08-13T00:11:49.889Z,90.14
2016-08-13T00:12:50.493Z,90.42
2016-08-13T00:13:51.113Z,91.09
2016-08-13T00:14:51.945Z,90.9
2016-08-13T00:15:52.553Z,90.61
2016-08-13T00:16:53.183Z,90.14
2016-08-13T00:17:53.802Z,90.52
2016-08-13T00:18:54.460Z,91.14
2016-08-13T00:19:55.403Z,90.57
2016-08-13T00:20:56.044Z,90.95
2016-08-13T00:21:56.725Z,91.14
2016-08-13T00:22:57.416Z,91.05
2016-08-13T00:23:58.047Z,90.47
2016-08-13T00:24:58.662Z,90.57
2016-08-13T00:25:59.268Z,90.67
2016-08-13T00:26:59.880Z,90.47
2016-08-13T00:28:00.501Z,90.67
2016-08-13T00:29:01.108Z,90.28
2016-08-13T00:30:01.732Z,90.09
2016-08-13T00:31:02.345Z,90.42
2016-08-13T00:32:02.956Z,89.61
2016-08-13T00:33:03.590Z,90
2016-08-13T00:34:04.214Z,90.19
2016-08-13T00:35:04.833Z,90.47
2016-08-13T00:36:05.453Z,90.67
2016-08-13T00:37:06.061Z,90.19
2016-08-13T00:38:06.671Z,90.67
2016-08-13T00:39:07.292Z,90.57
2016-08-13T00:40:08.398Z,90.57
2016-08-13T00:41:09.029Z,90.67
2016-08-13T00:42:09.644Z,90.76
2016-08-13T00:43:10.264Z,90.67
2016-08-13T00:44:10.879Z,90.38
2016-08-13T00:45:12.053Z,91.14
2016-08-13T00:46:12.674Z,91.14
2016-08-13T00:47:13.290Z,90.47
2016-08-13T00:48:13.904Z,90.57
2016-08-13T00:49:14.563Z,91.05
2016-08-13T00:50:15.193Z,91.05
2016-08-13T00:51:15.809Z,91.05
2016-08-13T00:52:16.424Z,90.86
2016-08-13T00:53:17.040Z,90.67
2016-08-13T00:54:17.647Z,90.38
2016-08-13T00:55:18.725Z,90.95
2016-08-13T00:56:19.349Z,90.57
2016-08-13T00:57:19.974Z,90.09
2016-08-13T00:58:20.586Z,90.67
2016-08-13T00:59:21.193Z,90.04
2016-08-13T01:00:21.812Z,90.19
2016-08-13T01:01:22.765Z,90.04
2016-08-13T01:02:23.399Z,90.52
2016-08-13T01:03:24.026Z,90.52
2016-08-13T01:04:24.650Z,89.61
2016-08-13T01:05:25.265Z,89.85
2016-08-13T01:06:25.882Z,89.47
2016-08-13T01:07:26.514Z,89.65
2016-08-13T01:08:27.142Z,89.47
2016-08-13T01:09:27.854Z,89.85
2016-08-13T01:10:28.475Z,89.08
2016-08-13T01:11:29.114Z,88.7
2016-08-13T01:12:29.734Z,89.18
2016-08-13T01:13:30.719Z,89.37
2016-08-13T01:14:31.344Z,89.27
2016-08-13T01:15:31.968Z,89.27
2016-08-13T01:16:32.570Z,89.56
2016-08-13T01:17:33.495Z,88.79
2016-08-13T01:18:34.114Z,88.98
2016-08-13T01:19:34.729Z,88.98
2016-08-13T01:20:35.687Z,89.37
2016-08-13T01:21:36.289Z,89.08
2016-08-13T01:22:36.906Z,88.6
2016-08-13T01:23:37.532Z,88.98
2016-08-13T01:24:38.163Z,88.89
2016-08-13T01:25:38.791Z,89.08
2016-08-13T01:26:42.311Z,88.98
2016-08-13T01:27:42.925Z,88.41
2016-08-13T01:28:43.545Z,88.98
2016-08-13T01:29:44.159Z,88.79
2016-08-13T01:30:44.778Z,88.98
2016-08-13T01:31:45.923Z,88.98
2016-08-13T01:32:46.544Z,89.27
2016-08-13T01:33:47.154Z,89.18
2016-08-13T01:34:47.765Z,89.27
2016-08-13T01:35:48.385Z,89.18
2016-08-13T01:36:49.000Z,89.37
2016-08-13T01:37:49.620Z,89.27
2016-08-13T01:38:50.232Z,89.08
2016-08-13T01:39:51.524Z,89.47
2016-08-13T01:40:52.132Z,89.94
2016-08-13T01:41:52.761Z,89.75
2016-08-13T01:42:53.373Z,89.27
2016-08-13T01:43:54.250Z,89.27
2016-08-13T01:44:54.908Z,89.56
2016-08-13T01:45:55.521Z,90.04
2016-08-13T01:46:56.128Z,89.65
2016-08-13T01:47:56.752Z,89.56
2016-08-13T01:48:57.378Z,89.65
2016-08-13T01:49:58.024Z,90.52
2016-08-13T01:50:58.643Z,90.71
2016-08-13T01:51:59.261Z,90.23
2016-08-13T01:53:00.212Z,90.23
2016-08-13T01:54:00.822Z,90.23
2016-08-13T01:55:01.436Z,90.23
2016-08-13T01:56:02.236Z,90.28
2016-08-13T01:57:02.881Z,90.33
2016-08-13T01:58:03.497Z,90.23
2016-08-13T01:59:04.121Z,90.33
2016-08-13T02:00:04.725Z,90.19
2016-08-13T02:01:05.342Z,90.76
2016-08-13T02:02:05.949Z,90.04
2016-08-13T02:03:06.561Z,90.28
2016-08-13T02:04:07.181Z,90.33
2016-08-13T02:05:07.814Z,90.23
2016-08-13T02:06:08.414Z,90.23
2016-08-13T02:07:09.031Z,90.19
2016-08-13T02:08:09.634Z,90.71
2016-08-13T02:09:10.244Z,90.19
2016-08-13T02:10:10.869Z,90.67
2016-08-13T02:11:11.482Z,90.67
2016-08-13T02:12:12.101Z,90.28
2016-08-13T02:13:12.720Z,90.33
2016-08-13T02:14:13.326Z,90.52
2016-08-13T02:15:13.952Z,90.19
2016-08-13T02:16:14.558Z,90.28
2016-08-13T02:17:15.167Z,89.8
2016-08-13T02:18:15.776Z,90.28
2016-08-13T02:19:16.379Z,90.47
2016-08-13T02:20:16.997Z,90
2016-08-13T02:21:17.621Z,90.57
2016-08-13T02:22:18.263Z,90.28
2016-08-13T02:23:18.883Z,90.19
2016-08-13T02:24:19.504Z,90.47
2016-08-13T02:25:20.121Z,90.67
2016-08-13T02:26:20.730Z,91.14
2016-08-13T02:27:21.334Z,91.05
2016-08-13T02:28:21.913Z,91.14
2016-08-13T02:29:22.458Z,90.67
2016-08-13T02:30:23.019Z,90.38
2016-08-13T02:31:23.579Z,90.19
2016-08-13T02:32:24.198Z,90.38
2016-08-13T02:33:24.783Z,90.67
2016-08-13T02:34:25.344Z,90.47
2016-08-13T02:35:25.924Z,90.38
2016-08-13T02:36:26.483Z,90.19
2016-08-13T02:37:27.047Z,90.38
2016-08-13T02:38:27.627Z,91.14
2016-08-13T02:39:28.198Z,90.67
2016-08-13T02:40:28.781Z,90.47
2016-08-13T02:41:29.347Z,90.38
2016-08-13T02:42:29.919Z,90.19
2016-08-13T02:43:30.487Z,90.38
2016-08-13T02:44:31.046Z,90.67
2016-08-13T02:45:31.602Z,90.19
2016-08-13T02:46:32.165Z,90.28
2016-08-13T02:47:32.751Z,90.28
2016-08-13T02:48:33.295Z,90.47
2016-08-13T02:49:33.854Z,90.38
2016-08-13T02:50:34.422Z,90.19
2016-08-13T02:51:34.981Z,90
2016-08-13T02:52:35.560Z,90.28
2016-08-13T02:53:36.131Z,90.28
2016-08-13T02:54:36.707Z,90.47
2016-08-13T02:55:37.264Z,90.28
2016-08-13T02:56:37.823Z,90
2016-08-13T02:57:38.422Z,90.28
2016-08-13T02:58:39.012Z,90.09
2016-08-13T02:59:39.605Z,90.67
2016-08-13T03:00:40.175Z,90.28
2016-08-13T03:01:40.763Z,90.47
2016-08-13T03:02:41.328Z,90.95
2016-08-13T03:03:41.900Z,90.57
2016-08-13T03:04:42.460Z,90.67
2016-08-13T03:05:43.039Z,90.57
2016-08-13T03:06:43.608Z,90.95
2016-08-13T03:07:44.176Z,90.67
2016-08-13T03:08:44.743Z,90
2016-08-13T03:09:45.319Z,90.47
2016-08-13T03:10:45.880Z,90.67
2016-08-13T03:11:46.460Z,90.28
2016-08-13T03:12:47.042Z,90.57
2016-08-13T03:13:47.625Z,91.14
2016-08-13T03:14:48.203Z,90.67
2016-08-13T03:15:48.787Z,90.28
2016-08-13T03:16:49.356Z,90.19
2016-08-13T03:17:49.914Z,90.67
2016-08-13T03:18:50.477Z,90.57
2016-08-13T03:19:51.037Z,90.95
2016-08-13T03:20:51.626Z,90.76
2016-08-13T03:21:52.178Z,90.23
2016-08-13T03:22:52.768Z,90.47
2016-08-13T03:23:53.347Z,90.53
2016-08-13T03:24:53.939Z,91.14
2016-08-13T03:25:54.515Z,90.47
2016-08-13T03:26:55.078Z,90.09
2016-08-13T03:27:55.644Z,90.67
2016-08-13T03:28:56.208Z,90.47
2016-08-13T03:29:56.770Z,90.67
2016-08-13T03:30:57.334Z,90.62
2016-08-13T03:31:57.918Z,90.38
2016-08-13T03:32:58.526Z,90.28
2016-08-13T03:33:59.085Z,90.05
2016-08-13T03:34:59.651Z,90.19
2016-08-13T03:36:01.361Z,90
2016-08-13T03:37:01.926Z,90.28
2016-08-13T03:38:02.491Z,89.9
2016-08-13T03:39:03.057Z,89.51
2016-08-13T03:40:03.625Z,89.51
2016-08-13T03:41:04.192Z,90.47
2016-08-13T03:42:04.754Z,90.28
2016-08-13T03:43:05.331Z,89.61
2016-08-13T03:44:05.908Z,89.61
2016-08-13T03:45:06.475Z,89.61
2016-08-13T03:46:07.044Z,89.71
2016-08-13T03:47:07.624Z,89.51
2016-08-13T03:48:08.183Z,90.43
2016-08-13T03:49:08.747Z,90.19
2016-08-13T03:50:09.379Z,90.67
2016-08-13T03:51:09.943Z,90.28
2016-08-13T03:52:10.511Z,90
2016-08-13T03:53:11.087Z,90.09
2016-08-13T03:54:11.649Z,90.19
2016-08-13T03:55:12.225Z,90.09
2016-08-13T03:56:12.782Z,90
2016-08-13T03:57:13.345Z,90.47
2016-08-13T03:58:13.902Z,89.42
2016-08-13T03:59:14.479Z,90.38
2016-08-13T04:00:15.037Z,89.9
2016-08-13T04:01:15.594Z,89.8
2016-08-13T04:02:16.163Z,89.8
2016-08-13T04:03:16.723Z,89.51
2016-08-13T04:04:17.303Z,89.8
2016-08-13T04:05:17.864Z,89.9
2016-08-13T04:06:18.425Z,89.8
2016-08-13T04:07:18.985Z,90.09
2016-08-13T04:08:19.555Z,90.28
2016-08-13T04:09:20.127Z,90.28
2016-08-13T04:10:20.694Z,90.28
2016-08-13T04:11:21.264Z,90.38
2016-08-13T04:12:21.832Z,90.19
2016-08-13T04:13:22.404Z,90.57
2016-08-13T04:14:22.964Z,90.57
2016-08-13T04:15:23.535Z,90.23
2016-08-13T04:16:24.096Z,90.67
2016-08-13T04:17:24.697Z,90.67
2016-08-13T04:18:25.273Z,90.67
2016-08-13T04:19:25.846Z,90.38
2016-08-13T04:20:26.405Z,90.62
2016-08-13T04:21:26.975Z,90.67
2016-08-13T04:22:27.553Z,90.47
2016-08-13T04:23:28.120Z,90.67
2016-08-13T04:24:28.681Z,90.57
2016-08-13T04:25:29.253Z,90.38
2016-08-13T04:26:29.826Z,90.38
2016-08-13T04:27:30.392Z,90.28
2016-08-13T04:28:30.960Z,90.28
2016-08-13T04:29:31.550Z,90.28
2016-08-13T04:30:32.111Z,90.47
2016-08-13T04:31:32.681Z,90.28
2016-08-13T04:32:33.252Z,90.38
2016-08-13T04:33:33.834Z,90.28
2016-08-13T04:34:34.419Z,90.19
2016-08-13T04:35:34.986Z,90.57
2016-08-13T04:36:35.549Z,90.19
2016-08-13T04:37:36.113Z,90
2016-08-13T04:38:36.687Z,90.28
2016-08-13T04:39:37.251Z,90.19
2016-08-13T04:40:37.819Z,89.61
2016-08-13T04:41:38.378Z,90.38
2016-08-13T04:42:38.962Z,90.19
2016-08-13T04:43:39.541Z,90.19
2016-08-13T04:44:40.108Z,90.67
2016-08-13T04:45:40.680Z,90.67
2016-08-13T04:46:41.247Z,90.57
2016-08-13T04:47:41.810Z,90.09
2016-08-13T04:48:42.373Z,90.67
2016-08-13T04:49:42.953Z,90.67
2016-08-13T04:50:43.530Z,90
2016-08-13T04:51:44.097Z,90.14
2016-08-13T04:52:44.668Z,90.38
2016-08-13T04:53:45.236Z,90.19
2016-08-13T04:54:45.812Z,90.33
2016-08-13T04:55:46.372Z,90.23
2016-08-13T04:56:46.934Z,90.71
2016-08-13T04:57:47.501Z,90.42
2016-08-13T04:58:48.060Z,90.23
2016-08-13T04:59:48.629Z,90.33
2016-08-13T05:00:49.190Z,90.09
2016-08-13T05:01:49.750Z,90.14
2016-08-13T05:02:50.310Z,90.52
2016-08-13T05:03:50.882Z,90.71
2016-08-13T05:04:51.446Z,90.52
2016-08-13T05:05:52.000Z,90.52
2016-08-13T05:06:52.571Z,90.04
2016-08-13T05:07:53.149Z,90.14
2016-08-13T05:08:53.724Z,90.14
2016-08-13T05:09:54.297Z,90.52
2016-08-13T05:10:54.851Z,90.14
2016-08-13T05:11:55.413Z,90.52
2016-08-13T05:12:55.984Z,91
2016-08-13T05:13:56.556Z,90.52
2016-08-13T05:14:57.114Z,90.42
2016-08-13T05:15:57.695Z,90.71
2016-08-13T05:16:58.289Z,90.33
2016-08-13T05:17:58.853Z,90.23
2016-08-13T05:18:59.413Z,90.14
2016-08-13T05:19:59.984Z,90.42
2016-08-13T05:21:00.548Z,90.04
2016-08-13T05:22:01.132Z,90.52
2016-08-13T05:23:01.704Z,89.75
2016-08-13T05:24:02.282Z,89.27
2016-08-13T05:25:02.847Z,89.85
2016-08-13T05:26:03.421Z,89.08
2016-08-13T05:27:03.996Z,89.08
2016-08-13T05:28:04.556Z,89.08
2016-08-13T05:29:05.128Z,89.37
2016-08-13T05:30:05.695Z,88.79
2016-08-13T05:31:06.275Z,89.18
2016-08-13T05:32:06.838Z,89.65
2016-08-13T05:33:07.406Z,89.47
2016-08-13T05:34:07.971Z,89.56
2016-08-13T05:35:08.541Z,89.18
2016-08-13T05:36:09.115Z,89.27
2016-08-13T05:37:09.688Z,89.85
2016-08-13T05:38:10.261Z,89.41
2016-08-13T05:39:10.825Z,89.12
2016-08-13T05:40:11.388Z,89.12
2016-08-13T05:41:11.952Z,88.74
2016-08-13T05:42:12.520Z,88.74
2016-08-13T05:43:13.085Z,88.55
2016-08-13T05:44:13.653Z,88.26
2016-08-13T05:45:14.251Z,88.35
2016-08-13T05:46:14.826Z,88.35
2016-08-13T05:47:15.397Z,88.45
2016-08-13T05:48:15.957Z,88.07
2016-08-13T05:49:16.518Z,88.17
2016-08-13T05:50:17.085Z,87.98
2016-08-13T05:51:17.668Z,88.35
2016-08-13T05:52:18.236Z,87.59
2016-08-13T05:53:18.797Z,87.73
2016-08-13T05:54:19.364Z,87.3
2016-08-13T05:55:19.937Z,87.05
2016-08-13T05:56:20.502Z,86.92
2016-08-13T05:57:21.064Z,87.59
2016-08-13T05:58:21.642Z,87.01
2016-08-13T05:59:22.219Z,87.49
2016-08-13T06:00:22.784Z,86.58
2016-08-13T06:01:23.353Z,85.91
2016-08-13T06:02:23.921Z,84.03
2016-08-13T06:03:24.495Z,85.28
2016-08-13T06:04:25.059Z,86.68
2016-08-13T06:05:25.625Z,86.48
2016-08-13T06:06:26.186Z,84.6
2016-08-13T06:07:26.767Z,85.91
2016-08-13T06:08:27.339Z,85.91
2016-08-13T06:09:27.910Z,85.62
2016-08-13T06:10:28.493Z,86.48
2016-08-13T06:11:29.089Z,86.38
2016-08-13T06:12:29.666Z,86.1
2016-08-13T06:13:30.244Z,86.58
2016-08-13T06:14:30.816Z,87.05
2016-08-13T06:15:31.378Z,86.77
2016-08-13T06:16:31.962Z,86.48
2016-08-13T06:17:32.548Z,85.47
2016-08-13T06:18:33.402Z,83.64
2016-08-13T06:19:34.012Z,83.36
2016-08-13T06:20:34.579Z,82.97
2016-08-13T06:21:35.153Z,83.64
2016-08-13T06:22:35.731Z,84.18
2016-08-13T06:23:36.344Z,85.42
2016-08-13T06:24:36.945Z,84.8
2016-08-13T06:25:37.518Z,82.97
2016-08-13T06:26:38.085Z,82.05
2016-08-13T06:27:38.679Z,83.74
2016-08-13T06:28:39.245Z,84.51
2016-08-13T06:29:39.815Z,84.12
2016-08-13T06:30:40.388Z,84.99
2016-08-13T06:31:40.961Z,83.54
2016-08-13T06:32:41.529Z,83.16
2016-08-13T06:33:42.105Z,83.93
2016-08-13T06:34:42.667Z,84.6
2016-08-13T06:35:43.229Z,84.7
2016-08-13T06:36:43.792Z,85.04
2016-08-13T06:37:44.760Z,85.71
2016-08-13T06:38:45.532Z,83.54
2016-08-13T06:39:46.081Z,84.41
2016-08-13T06:40:46.649Z,82.87
2016-08-13T06:41:47.225Z,83.64
2016-08-13T06:42:47.803Z,84.56
2016-08-13T06:43:48.397Z,84.56
2016-08-13T06:44:48.953Z,84.66
2016-08-13T06:45:49.509Z,84.56
2016-08-13T06:46:50.082Z,85.33
2016-08-13T06:47:50.643Z,84.47
2016-08-13T06:48:51.203Z,84.6
2016-08-13T06:49:51.784Z,84.31
2016-08-13T06:50:52.344Z,83.36
2016-08-13T06:51:52.908Z,84.66
2016-08-13T06:52:53.479Z,85.14
2016-08-13T06:53:54.122Z,85.62
2016-08-13T06:54:54.690Z,84.95
2016-08-13T06:55:55.253Z,85.42
2016-08-13T06:56:55.809Z,86.38
2016-08-13T06:57:56.376Z,84.85
2016-08-13T06:58:56.944Z,83.64
2016-08-13T06:59:57.519Z,83.93
2016-08-13T07:00:58.097Z,83.26
2016-08-13T07:01:58.657Z,83.98
2016-08-13T07:02:59.238Z,84.12
2016-08-13T07:03:59.797Z,85.24
2016-08-13T07:05:00.360Z,85.42
2016-08-13T07:06:00.931Z,85.42
2016-08-13T07:07:01.491Z,84.85
2016-08-13T07:08:02.048Z,86.1
2016-08-13T07:09:02.645Z,85.52
2016-08-13T07:10:03.215Z,82.3
2016-08-13T07:11:03.777Z,82.87
2016-08-13T07:12:04.350Z,84.12
2016-08-13T07:13:04.928Z,84.37
2016-08-13T07:14:05.503Z,84.66
2016-08-13T07:15:06.075Z,84.51
2016-08-13T07:16:06.635Z,84.41
2016-08-13T07:17:07.197Z,85.42
2016-08-13T07:18:07.775Z,83.93
2016-08-13T07:19:08.344Z,83.07
2016-08-13T07:20:08.903Z,80.61
2016-08-13T07:21:09.467Z,80.9
2016-08-13T07:22:10.024Z,81.48
2016-08-13T07:23:10.594Z,82.68
2016-08-13T07:24:11.173Z,79.02
2016-08-13T07:25:11.761Z,80.51
2016-08-13T07:26:12.297Z,80.9
2016-08-13T07:27:12.868Z,80.8
2016-08-13T07:28:13.455Z,80.71
2016-08-13T07:29:14.022Z,80.8
2016-08-13T07:30:14.610Z,82.01
2016-08-13T07:31:15.177Z,82.49
2016-08-13T07:32:15.774Z,82.49
2016-08-13T07:33:16.334Z,82.2
2016-08-13T07:34:16.916Z,82.87
2016-08-13T07:35:17.499Z,82.87
2016-08-13T07:36:18.059Z,81.63
2016-08-13T07:37:18.633Z,83.26
2016-08-13T07:38:19.198Z,84.08
2016-08-13T07:39:19.773Z,83.54
2016-08-13T07:40:20.334Z,83.64
2016-08-13T07:41:20.899Z,83.45
2016-08-13T07:42:21.466Z,81.28
2016-08-13T07:43:22.034Z,81.09
2016-08-13T07:44:22.609Z,81.92
2016-08-13T07:45:23.175Z,83.45
2016-08-13T07:46:23.739Z,84.12
2016-08-13T07:47:24.311Z,84.12
2016-08-13T07:48:24.936Z,84.22
2016-08-13T07:49:25.572Z,84.56
2016-08-13T07:50:26.194Z,85.33
2016-08-13T07:51:26.817Z,85.52
2016-08-13T07:52:27.686Z,85.08
2016-08-13T07:53:28.307Z,85.24
2016-08-13T07:54:28.926Z,85.28
2016-08-13T07:55:29.544Z,84.41
2016-08-13T07:56:30.165Z,83.93
2016-08-13T07:57:30.789Z,83.84
2016-08-13T07:58:31.412Z,84.7
2016-08-13T07:59:32.027Z,84.03
2016-08-13T08:00:32.648Z,83.64
2016-08-13T08:01:33.268Z,83.26
2016-08-13T08:02:33.898Z,82.97
2016-08-13T08:03:34.512Z,81.86
2016-08-13T08:04:35.131Z,82.05
2016-08-13T08:05:35.753Z,81.57
2016-08-13T08:06:36.376Z,81.38
2016-08-13T08:07:36.996Z,81.86
2016-08-13T08:08:37.621Z,82.2
2016-08-13T08:09:38.239Z,83.45
2016-08-13T08:10:38.869Z,82.68
2016-08-13T08:11:39.503Z,82.73
2016-08-13T08:12:40.128Z,82.24
2016-08-13T08:13:40.738Z,82.92
2016-08-13T08:14:41.374Z,82.97
2016-08-13T08:15:42.059Z,82.63
2016-08-13T08:16:42.690Z,82.92
2016-08-13T08:17:43.320Z,82.63
2016-08-13T08:18:43.947Z,81.48
2016-08-13T08:19:44.563Z,81.57
2016-08-13T08:20:45.175Z,81.76
2016-08-13T08:21:45.787Z,82.15
2016-08-13T08:22:46.410Z,82.92
2016-08-13T08:23:47.035Z,82.34
2016-08-13T08:24:47.647Z,82.63
2016-08-13T08:25:48.272Z,82.59
2016-08-13T08:26:48.890Z,82.53
2016-08-13T08:27:49.565Z,82.53
2016-08-13T08:28:50.189Z,82.34
2016-08-13T08:29:50.815Z,82.05
2016-08-13T08:30:51.443Z,82.15
2016-08-13T08:31:52.057Z,82.05
2016-08-13T08:32:52.676Z,82.78
2016-08-13T08:33:53.295Z,83.3
2016-08-13T08:34:53.914Z,82.53
2016-08-13T08:35:54.568Z,82.73
2016-08-13T08:36:55.206Z,81.76
2016-08-13T08:37:55.853Z,81.76
2016-08-13T08:38:56.464Z,81.38
2016-08-13T08:39:57.089Z,80.9
2016-08-13T08:40:57.776Z,81.04
2016-08-13T08:41:58.407Z,80.46
2016-08-13T08:42:59.031Z,79.84
2016-08-13T08:43:59.692Z,80.36
2016-08-13T08:45:00.328Z,79.36
2016-08-13T08:46:00.970Z,80.04
2016-08-13T08:47:01.617Z,79.36
2016-08-13T08:48:02.239Z,79.5
2016-08-13T08:49:02.870Z,79.5
2016-08-13T08:50:03.504Z,79.5
2016-08-13T08:51:04.143Z,78.83
2016-08-13T08:52:04.852Z,78.63
2016-08-13T08:53:05.458Z,78.44
2016-08-13T08:54:06.081Z,78.25
2016-08-13T08:55:06.703Z,78.15
2016-08-13T08:56:07.341Z,78.15
2016-08-13T08:57:07.948Z,78.15
2016-08-13T08:58:08.557Z,78.44
2016-08-13T08:59:09.168Z,77.86
2016-08-13T09:00:09.792Z,76.36
2016-08-13T09:01:10.415Z,76.84
2016-08-13T09:02:11.049Z,75.69
2016-08-13T09:03:11.670Z,75.69
2016-08-13T09:04:12.284Z,75.21
2016-08-13T09:05:12.890Z,75.49
2016-08-13T09:06:13.513Z,75.59
2016-08-13T09:07:14.134Z,74.82
2016-08-13T09:08:15.240Z,75.24
2016-08-13T09:09:16.665Z,74.67
2016-08-13T09:10:17.280Z,74.86
2016-08-13T09:11:17.894Z,75.34
2016-08-13T09:12:18.562Z,75.15
2016-08-13T09:13:19.192Z,74.57
2016-08-13T09:14:19.893Z,75.05
2016-08-13T09:15:20.565Z,74.48
2016-08-13T09:16:21.172Z,73.13
2016-08-13T09:17:21.836Z,73.71
2016-08-13T09:18:22.446Z,72.94
2016-08-13T09:19:23.062Z,73.99
2016-08-13T09:20:23.686Z,73.9
2016-08-13T09:21:24.319Z,74.57
2016-08-13T09:22:24.927Z,74.73
2016-08-13T09:23:25.547Z,75.11
2016-08-13T09:24:26.154Z,75.59
2016-08-13T09:25:26.762Z,75.31
2016-08-13T09:26:27.398Z,75.11
2016-08-13T09:27:28.011Z,76.07
2016-08-13T09:28:28.614Z,76.75
2016-08-13T09:29:29.231Z,77.04
2016-08-13T09:30:29.790Z,76.46
2016-08-13T09:32:25.447Z,75.88
2016-08-13T09:33:26.023Z,75.69
2016-08-13T09:36:14.879Z,75.31
2016-08-13T09:37:15.442Z,75.31
2016-08-13T09:38:16.026Z,75.4
2016-08-13T09:39:16.620Z,75.31
2016-08-13T09:40:17.204Z,73.32
2016-08-13T09:41:17.781Z,73.57
2016-08-13T09:42:18.351Z,73.71
2016-08-13T09:43:18.934Z,74.15
2016-08-13T09:44:19.583Z,74.44
2016-08-13T09:45:20.200Z,75.4
2016-08-13T09:46:20.808Z,74.73
2016-08-13T09:47:21.390Z,74.05
2016-08-13T09:48:21.957Z,75.65
2016-08-13T09:49:22.525Z,76.04
2016-08-13T09:50:23.097Z,76.42
2016-08-13T09:51:23.661Z,76.32
2016-08-13T09:52:24.247Z,76.04
2016-08-13T09:53:24.820Z,76.32
2016-08-13T09:54:25.386Z,76.32
2016-08-13T09:55:25.954Z,75.27
2016-08-13T09:56:26.522Z,74.92
2016-08-13T09:57:27.092Z,74.69
2016-08-13T09:58:27.663Z,74.98
2016-08-13T09:59:28.230Z,75.56
2016-08-13T10:00:28.802Z,74.98
2016-08-13T10:01:29.369Z,74.34
2016-08-13T10:02:29.944Z,74.82
2016-08-13T10:03:30.508Z,75.17
2016-08-13T10:04:31.073Z,75.4
2016-08-13T10:05:31.650Z,75.11
2016-08-13T10:06:32.233Z,75.69
2016-08-13T10:07:32.803Z,74.63
2016-08-13T10:08:33.379Z,74.44
2016-08-13T10:09:34.028Z,74.05
2016-08-13T10:10:34.637Z,73.22
2016-08-13T10:11:35.259Z,72.74
2016-08-13T10:12:35.893Z,73.32
2016-08-13T10:13:36.518Z,73.67
2016-08-13T10:14:37.144Z,73.57
2016-08-13T10:15:37.756Z,73.47
2016-08-13T10:16:38.375Z,73.96
2016-08-13T10:17:38.992Z,73.22
2016-08-13T10:18:39.617Z,72.8
2016-08-13T10:19:40.237Z,73.77
2016-08-13T10:20:40.858Z,73.19
2016-08-13T10:21:41.481Z,73
2016-08-13T10:22:42.139Z,71.78
2016-08-13T10:23:42.767Z,71.01
2016-08-13T10:24:43.403Z,70.62
2016-08-13T10:25:44.003Z,69.76
2016-08-13T10:26:44.633Z,69.76
2016-08-13T10:27:45.268Z,69.76
2016-08-13T10:28:45.952Z,68.44
2016-08-13T10:29:46.574Z,67.77
2016-08-13T10:30:47.219Z,68.06
2016-08-13T10:31:47.836Z,67.97
2016-08-13T10:32:48.454Z,67.68
2016-08-13T10:33:49.071Z,67.87
2016-08-13T10:34:49.695Z,67.74
2016-08-13T10:35:50.316Z,68.99
2016-08-13T10:36:50.932Z,70.15
2016-08-13T10:37:51.570Z,69.57
2016-08-13T10:38:52.186Z,69.57
2016-08-13T10:39:52.804Z,68.7
2016-08-13T10:40:53.425Z,69.57
2016-08-13T10:41:54.046Z,69.82
2016-08-13T10:42:54.650Z,69.85
2016-08-13T10:43:55.295Z,69.38
2016-08-13T10:44:55.907Z,69.57
2016-08-13T10:45:56.528Z,69.67
2016-08-13T10:46:57.154Z,68.96
2016-08-13T10:47:57.773Z,69.63
2016-08-13T10:48:58.393Z,69.09
2016-08-13T10:49:59.010Z,69.47
2016-08-13T10:50:59.633Z,69.47
2016-08-13T10:52:00.263Z,68.99
2016-08-13T10:53:00.882Z,69.28
2016-08-13T10:54:01.499Z,68.9
2016-08-13T10:55:02.284Z,68.32
2016-08-13T10:56:02.907Z,65.46
2016-08-13T10:57:03.521Z,65.98
2016-08-13T10:58:04.180Z,65.17
2016-08-13T10:59:04.845Z,64.92
2016-08-13T11:00:05.492Z,63.67
2016-08-13T11:01:06.104Z,63.85
2016-08-13T11:02:06.731Z,63.57
2016-08-13T11:03:07.354Z,63.57
2016-08-13T11:04:07.963Z,63.57
2016-08-13T11:05:08.578Z,62.51
2016-08-13T11:06:09.198Z,63.18
2016-08-13T11:07:09.816Z,62.8
2016-08-13T11:08:10.439Z,63.34
2016-08-13T11:09:11.125Z,63.95
2016-08-13T11:10:11.735Z,63.18
2016-08-13T11:11:12.353Z,62.12
2016-08-13T11:12:12.963Z,61.96
2016-08-13T11:13:13.579Z,61.96
2016-08-13T11:14:14.208Z,61.74
2016-08-13T11:15:14.863Z,62.22
2016-08-13T11:16:15.488Z,61.48
2016-08-13T11:17:16.126Z,61.58
2016-08-13T11:18:16.752Z,61.38
2016-08-13T11:19:17.420Z,61.29
2016-08-13T11:20:18.054Z,61.58
2016-08-13T11:21:18.664Z,61.77
2016-08-13T11:22:19.295Z,60.8
2016-08-13T11:23:19.934Z,60.71
2016-08-13T11:24:20.583Z,62.22
2016-08-13T11:25:21.203Z,62.51
2016-08-13T11:26:21.824Z,61.68
2016-08-13T11:27:22.459Z,61.38
2016-08-13T11:28:23.073Z,61.68
2016-08-13T11:29:23.706Z,62.06
2016-08-13T11:30:24.321Z,61.48
2016-08-13T11:31:24.938Z,61.38
2016-08-13T11:32:25.558Z,62.15
2016-08-13T11:33:26.169Z,61.29
2016-08-13T11:34:26.789Z,61.74
2016-08-13T11:35:27.415Z,61.93
2016-08-13T11:36:28.036Z,61.45
2016-08-13T11:37:28.652Z,62.57
2016-08-13T11:38:29.270Z,63.64
2016-08-13T11:39:29.894Z,63.54
2016-08-13T11:40:30.515Z,63.54
2016-08-13T11:41:31.156Z,63.82
2016-08-13T11:42:31.767Z,63.92
2016-08-13T11:43:32.393Z,64.31
2016-08-13T11:44:32.999Z,64.86
2016-08-13T11:45:33.617Z,65.05
2016-08-13T11:46:34.245Z,65.63
2016-08-13T11:47:34.859Z,65.91
2016-08-13T11:48:35.467Z,66.1
2016-08-13T11:49:36.091Z,65.59
2016-08-13T11:50:36.710Z,65.59
2016-08-13T11:51:37.311Z,65.88
2016-08-13T11:52:37.923Z,65.88
2016-08-13T11:53:38.538Z,65.59
2016-08-13T11:54:39.166Z,64.76
2016-08-13T11:55:39.773Z,63.89
2016-08-13T11:56:40.407Z,63.82
2016-08-13T11:57:41.032Z,64.02
2016-08-13T11:58:41.657Z,64.12
2016-08-13T11:59:42.274Z,63.06
2016-08-13T12:00:42.894Z,63.15
2016-08-13T12:01:43.514Z,63.09
2016-08-13T12:02:44.135Z,62.29
2016-08-13T12:03:44.756Z,63.34
2016-08-13T12:04:45.373Z,63.92
2016-08-13T12:05:45.998Z,63.34
2016-08-13T12:07:47.230Z,64.31
2016-08-13T12:08:47.855Z,64.69
2016-08-13T12:09:48.518Z,63.82
2016-08-13T12:10:49.134Z,63.73
2016-08-13T12:11:49.744Z,64.05
2016-08-13T12:12:50.377Z,63.67
2016-08-13T12:13:50.978Z,63.09
2016-08-13T12:14:51.587Z,62.99
2016-08-13T12:15:52.210Z,63.44
2016-08-13T12:16:52.832Z,62.9
2016-08-13T12:17:53.536Z,62.7
2016-08-13T12:18:54.147Z,62.9
2016-08-13T12:19:54.769Z,63.18
2016-08-13T12:20:55.391Z,63.09
2016-08-13T12:21:56.013Z,62.51
2016-08-13T12:22:56.648Z,62.6
2016-08-13T12:23:57.313Z,63.18
2016-08-13T12:24:57.926Z,62.96
2016-08-13T12:25:58.549Z,63.64
2016-08-13T12:26:59.171Z,63.64
2016-08-13T12:27:59.796Z,63.92
2016-08-13T12:29:00.449Z,64.89
2016-08-13T12:30:01.089Z,64.79
2016-08-13T12:31:01.726Z,64.89
2016-08-13T12:32:02.341Z,65.14
2016-08-13T12:33:02.971Z,65.63
2016-08-13T12:34:03.591Z,65.24
2016-08-13T12:35:04.247Z,65.33
2016-08-13T12:36:04.853Z,65.81
2016-08-13T12:37:05.465Z,66.39
2016-08-13T12:38:06.087Z,66.74
2016-08-13T12:39:06.708Z,67.07
2016-08-13T12:40:07.347Z,66.68
2016-08-13T12:41:07.968Z,66.78
2016-08-13T12:42:08.583Z,66.68
2016-08-13T12:43:09.209Z,66.49
2016-08-13T12:44:09.823Z,66.39
2016-08-13T12:45:10.440Z,66.88
2016-08-13T12:46:11.075Z,66.2
2016-08-13T12:47:11.698Z,66.88
2016-08-13T12:48:12.346Z,67.26
2016-08-13T12:49:12.967Z,66.68
2016-08-13T12:50:13.591Z,66.58
2016-08-13T12:51:14.216Z,66.39
2016-08-13T12:52:14.827Z,66.55
2016-08-13T12:53:15.450Z,66.01
2016-08-13T12:54:16.080Z,66.01
2016-08-13T12:55:16.697Z,66.2
2016-08-13T12:56:17.325Z,66.2
2016-08-13T12:57:17.945Z,66.2
2016-08-13T12:58:18.570Z,66.2
2016-08-13T12:59:19.195Z,66.3
2016-08-13T13:00:19.811Z,66.3
2016-08-13T13:01:20.438Z,66.3
2016-08-13T13:02:21.061Z,66.01
2016-08-13T13:03:21.692Z,65.63
2016-08-13T13:04:22.330Z,65.24
2016-08-13T13:05:22.954Z,65.43
2016-08-13T13:06:23.571Z,65.72
2016-08-13T13:07:24.195Z,66.2